sensor_id;sensor_type;location;lat;lon;timestamp;pressure;altitude;pressure_sealevel;temperature
68027;BMP180;54819;48.030;14.710;2023-12-20T00:02:15;97508.60;;;1.80
68027;BMP180;54819;48.030;14.710;2023-12-20T00:04:42;97501.80;;;1.80
68027;BMP180;54819;48.030;14.710;2023-12-20T00:07:09;97495.80;;;1.84
68027;BMP180;54819;48.030;14.710;2023-12-20T00:09:36;97492.00;;;1.90
68027;BMP180;54819;48.030;14.710;2023-12-20T00:12:02;97490.60;;;1.90
68027;BMP180;54819;48.030;14.710;2023-12-20T00:14:29;97494.80;;;1.90
68027;BMP180;54819;48.030;14.710;2023-12-20T00:16:56;97489.80;;;1.90
68027;BMP180;54819;48.030;14.710;2023-12-20T00:19:22;97491.80;;;1.94
68027;BMP180;54819;48.030;14.710;2023-12-20T00:21:49;97497.60;;;2.00
68027;BMP180;54819;48.030;14.710;2023-12-20T00:24:16;97497.80;;;2.00
68027;BMP180;54819;48.030;14.710;2023-12-20T00:26:43;97496.80;;;2.00
68027;BMP180;54819;48.030;14.710;2023-12-20T00:29:09;97497.40;;;2.00
68027;BMP180;54819;48.030;14.710;2023-12-20T00:31:36;97495.20;;;2.10
68027;BMP180;54819;48.030;14.710;2023-12-20T00:34:03;97497.20;;;2.10
68027;BMP180;54819;48.030;14.710;2023-12-20T00:36:30;97494.80;;;2.10
68027;BMP180;54819;48.030;14.710;2023-12-20T00:38:56;97493.20;;;2.10
68027;BMP180;54819;48.030;14.710;2023-12-20T00:41:23;97488.80;;;2.10
68027;BMP180;54819;48.030;14.710;2023-12-20T00:43:50;97492.20;;;2.10
68027;BMP180;54819;48.030;14.710;2023-12-20T00:46:16;97491.00;;;2.10
68027;BMP180;54819;48.030;14.710;2023-12-20T00:48:43;97491.80;;;2.10
68027;BMP180;54819;48.030;14.710;2023-12-20T00:51:12;97488.00;;;2.10
68027;BMP180;54819;48.030;14.710;2023-12-20T00:53:39;97483.40;;;2.10
68027;BMP180;54819;48.030;14.710;2023-12-20T00:56:05;97480.20;;;2.20
68027;BMP180;54819;48.030;14.710;2023-12-20T00:58:32;97477.60;;;2.20
68027;BMP180;54819;48.030;14.710;2023-12-20T01:00:59;97470.80;;;2.30
68027;BMP180;54819;48.030;14.710;2023-12-20T01:03:26;97470.00;;;2.40
68027;BMP180;54819;48.030;14.710;2023-12-20T01:05:53;97462.80;;;2.50
68027;BMP180;54819;48.030;14.710;2023-12-20T01:08:19;97461.60;;;2.60
68027;BMP180;54819;48.030;14.710;2023-12-20T01:10:46;97465.60;;;2.80
68027;BMP180;54819;48.030;14.710;2023-12-20T01:13:13;97466.60;;;2.92
68027;BMP180;54819;48.030;14.710;2023-12-20T01:15:40;97466.60;;;3.10
68027;BMP180;54819;48.030;14.710;2023-12-20T01:18:07;97462.00;;;3.30
68027;BMP180;54819;48.030;14.710;2023-12-20T01:20:34;97457.00;;;3.40
68027;BMP180;54819;48.030;14.710;2023-12-20T01:23:00;97449.60;;;3.58
68027;BMP180;54819;48.030;14.710;2023-12-20T01:25:27;97435.60;;;3.70
68027;BMP180;54819;48.030;14.710;2023-12-20T01:27:54;97443.40;;;3.86
68027;BMP180;54819;48.030;14.710;2023-12-20T01:30:20;97431.80;;;4.00
68027;BMP180;54819;48.030;14.710;2023-12-20T01:32:47;97425.40;;;4.10
68027;BMP180;54819;48.030;14.710;2023-12-20T01:35:14;97428.60;;;4.20
68027;BMP180;54819;48.030;14.710;2023-12-20T01:37:41;97421.60;;;4.30
68027;BMP180;54819;48.030;14.710;2023-12-20T01:40:09;97419.40;;;4.42
68027;BMP180;54819;48.030;14.710;2023-12-20T01:42:36;97412.80;;;4.50
68027;BMP180;54819;48.030;14.710;2023-12-20T01:45:03;97412.60;;;4.60
68027;BMP180;54819;48.030;14.710;2023-12-20T01:47:30;97407.80;;;4.70
68027;BMP180;54819;48.030;14.710;2023-12-20T01:49:57;97401.00;;;4.78
68027;BMP180;54819;48.030;14.710;2023-12-20T01:52:25;97403.00;;;4.80
68027;BMP180;54819;48.030;14.710;2023-12-20T01:54:53;97398.40;;;4.90
68027;BMP180;54819;48.030;14.710;2023-12-20T01:57:23;97391.80;;;5.00
68027;BMP180;54819;48.030;14.710;2023-12-20T01:59:50;97393.80;;;5.00
68027;BMP180;54819;48.030;14.710;2023-12-20T02:02:17;97380.80;;;5.08
68027;BMP180;54819;48.030;14.710;2023-12-20T02:04:44;97376.60;;;5.10
68027;BMP180;54819;48.030;14.710;2023-12-20T02:07:11;97370.40;;;5.08
68027;BMP180;54819;48.030;14.710;2023-12-20T02:09:39;97367.40;;;5.02
68027;BMP180;54819;48.030;14.710;2023-12-20T02:12:07;97361.40;;;5.00
68027;BMP180;54819;48.030;14.710;2023-12-20T02:14:34;97359.40;;;4.98
68027;BMP180;54819;48.030;14.710;2023-12-20T02:17:00;97350.60;;;4.94
68027;BMP180;54819;48.030;14.710;2023-12-20T02:19:27;97358.80;;;4.90
68027;BMP180;54819;48.030;14.710;2023-12-20T02:22:13;97347.60;;;4.90
68027;BMP180;54819;48.030;14.710;2023-12-20T02:24:40;97347.40;;;4.90
68027;BMP180;54819;48.030;14.710;2023-12-20T02:27:08;97339.60;;;4.80
68027;BMP180;54819;48.030;14.710;2023-12-20T02:29:35;97341.60;;;4.80
68027;BMP180;54819;48.030;14.710;2023-12-20T02:32:02;97337.40;;;4.80
68027;BMP180;54819;48.030;14.710;2023-12-20T02:34:29;97336.60;;;4.80
68027;BMP180;54819;48.030;14.710;2023-12-20T02:36:56;97335.80;;;4.80
68027;BMP180;54819;48.030;14.710;2023-12-20T02:39:23;97332.80;;;4.80
68027;BMP180;54819;48.030;14.710;2023-12-20T02:41:49;97336.80;;;4.82
68027;BMP180;54819;48.030;14.710;2023-12-20T02:44:16;97331.40;;;4.80
68027;BMP180;54819;48.030;14.710;2023-12-20T02:46:43;97329.00;;;4.80
68027;BMP180;54819;48.030;14.710;2023-12-20T02:49:09;97320.20;;;4.80
68027;BMP180;54819;48.030;14.710;2023-12-20T02:51:36;97313.60;;;4.76
68027;BMP180;54819;48.030;14.710;2023-12-20T02:54:05;97315.80;;;4.70
68027;BMP180;54819;48.030;14.710;2023-12-20T02:56:33;97316.80;;;4.70
68027;BMP180;54819;48.030;14.710;2023-12-20T02:59:00;97315.60;;;4.70
68027;BMP180;54819;48.030;14.710;2023-12-20T03:01:28;97315.80;;;4.72
68027;BMP180;54819;48.030;14.710;2023-12-20T03:03:56;97318.80;;;4.80
68027;BMP180;54819;48.030;14.710;2023-12-20T03:06:23;97314.20;;;4.80
68027;BMP180;54819;48.030;14.710;2023-12-20T03:08:50;97312.40;;;4.80
68027;BMP180;54819;48.030;14.710;2023-12-20T03:11:16;97305.00;;;4.80
68027;BMP180;54819;48.030;14.710;2023-12-20T03:13:43;97300.40;;;4.70
68027;BMP180;54819;48.030;14.710;2023-12-20T03:16:11;97297.80;;;4.70
68027;BMP180;54819;48.030;14.710;2023-12-20T03:18:37;97303.00;;;4.60
68027;BMP180;54819;48.030;14.710;2023-12-20T03:21:05;97308.00;;;4.58
68027;BMP180;54819;48.030;14.710;2023-12-20T03:23:32;97298.60;;;4.52
68027;BMP180;54819;48.030;14.710;2023-12-20T03:26:00;97294.40;;;4.50
68027;BMP180;54819;48.030;14.710;2023-12-20T03:28:27;97289.80;;;4.42
68027;BMP180;54819;48.030;14.710;2023-12-20T03:30:54;97291.60;;;4.36
68027;BMP180;54819;48.030;14.710;2023-12-20T03:33:22;97291.20;;;4.30
68027;BMP180;54819;48.030;14.710;2023-12-20T03:35:48;97289.40;;;4.20
68027;BMP180;54819;48.030;14.710;2023-12-20T03:38:15;97290.40;;;4.20
68027;BMP180;54819;48.030;14.710;2023-12-20T03:40:42;97289.40;;;4.10
68027;BMP180;54819;48.030;14.710;2023-12-20T03:43:08;97290.20;;;4.00
68027;BMP180;54819;48.030;14.710;2023-12-20T03:45:35;97299.40;;;3.90
68027;BMP180;54819;48.030;14.710;2023-12-20T03:48:02;97294.80;;;3.90
68027;BMP180;54819;48.030;14.710;2023-12-20T03:50:29;97295.20;;;3.88
68027;BMP180;54819;48.030;14.710;2023-12-20T03:52:55;97290.40;;;3.80
68027;BMP180;54819;48.030;14.710;2023-12-20T03:55:22;97290.60;;;3.80
68027;BMP180;54819;48.030;14.710;2023-12-20T03:57:49;97283.20;;;3.80
68027;BMP180;54819;48.030;14.710;2023-12-20T04:00:16;97278.40;;;3.72
68027;BMP180;54819;48.030;14.710;2023-12-20T04:02:43;97283.80;;;3.70
68027;BMP180;54819;48.030;14.710;2023-12-20T04:05:11;97284.40;;;3.70
68027;BMP180;54819;48.030;14.710;2023-12-20T04:07:38;97285.60;;;3.70
68027;BMP180;54819;48.030;14.710;2023-12-20T04:10:06;97294.20;;;3.72
68027;BMP180;54819;48.030;14.710;2023-12-20T04:12:33;97308.20;;;3.80
68027;BMP180;54819;48.030;14.710;2023-12-20T04:15:00;97300.40;;;3.80
68027;BMP180;54819;48.030;14.710;2023-12-20T04:17:26;97303.80;;;3.88
68027;BMP180;54819;48.030;14.710;2023-12-20T04:19:53;97300.40;;;3.90
68027;BMP180;54819;48.030;14.710;2023-12-20T04:22:20;97296.20;;;3.90
68027;BMP180;54819;48.030;14.710;2023-12-20T04:24:47;97296.20;;;3.92
68027;BMP180;54819;48.030;14.710;2023-12-20T04:27:13;97289.40;;;4.00
68027;BMP180;54819;48.030;14.710;2023-12-20T04:29:40;97283.80;;;4.00
68027;BMP180;54819;48.030;14.710;2023-12-20T04:32:07;97286.20;;;4.00
68027;BMP180;54819;48.030;14.710;2023-12-20T04:34:33;97286.40;;;4.00
68027;BMP180;54819;48.030;14.710;2023-12-20T04:37:01;97283.20;;;4.02
68027;BMP180;54819;48.030;14.710;2023-12-20T04:39:28;97290.00;;;4.08
68027;BMP180;54819;48.030;14.710;2023-12-20T04:41:55;97290.80;;;4.10
68027;BMP180;54819;48.030;14.710;2023-12-20T04:44:22;97293.20;;;4.10
68027;BMP180;54819;48.030;14.710;2023-12-20T04:46:48;97297.40;;;4.10
68027;BMP180;54819;48.030;14.710;2023-12-20T04:49:15;97291.20;;;4.10
68027;BMP180;54819;48.030;14.710;2023-12-20T04:51:42;97296.60;;;4.10
68027;BMP180;54819;48.030;14.710;2023-12-20T04:54:09;97288.60;;;4.10
68027;BMP180;54819;48.030;14.710;2023-12-20T04:56:37;97290.00;;;4.10
68027;BMP180;54819;48.030;14.710;2023-12-20T04:59:03;97292.80;;;4.10
68027;BMP180;54819;48.030;14.710;2023-12-20T05:01:30;97303.40;;;4.10
68027;BMP180;54819;48.030;14.710;2023-12-20T05:03:57;97310.80;;;4.10
68027;BMP180;54819;48.030;14.710;2023-12-20T05:06:23;97313.60;;;4.10
68027;BMP180;54819;48.030;14.710;2023-12-20T05:08:51;97316.80;;;4.10
68027;BMP180;54819;48.030;14.710;2023-12-20T05:11:17;97311.80;;;4.10
68027;BMP180;54819;48.030;14.710;2023-12-20T05:13:44;97309.00;;;4.10
68027;BMP180;54819;48.030;14.710;2023-12-20T05:16:16;97313.80;;;4.10
68027;BMP180;54819;48.030;14.710;2023-12-20T05:18:47;97308.80;;;4.20
68027;BMP180;54819;48.030;14.710;2023-12-20T05:21:13;97309.40;;;4.20
68027;BMP180;54819;48.030;14.710;2023-12-20T05:23:40;97314.20;;;4.20
68027;BMP180;54819;48.030;14.710;2023-12-20T05:26:07;97320.20;;;4.28
68027;BMP180;54819;48.030;14.710;2023-12-20T05:28:33;97327.40;;;4.30
68027;BMP180;54819;48.030;14.710;2023-12-20T05:31:00;97333.40;;;4.30
68027;BMP180;54819;48.030;14.710;2023-12-20T05:33:27;97344.00;;;4.40
68027;BMP180;54819;48.030;14.710;2023-12-20T05:35:54;97343.00;;;4.40
68027;BMP180;54819;48.030;14.710;2023-12-20T05:38:21;97349.20;;;4.40
68027;BMP180;54819;48.030;14.710;2023-12-20T05:40:48;97351.20;;;4.40
68027;BMP180;54819;48.030;14.710;2023-12-20T05:43:14;97356.20;;;4.50
68027;BMP180;54819;48.030;14.710;2023-12-20T05:45:41;97353.60;;;4.50
68027;BMP180;54819;48.030;14.710;2023-12-20T05:48:09;97361.20;;;4.52
68027;BMP180;54819;48.030;14.710;2023-12-20T05:50:35;97371.80;;;4.60
68027;BMP180;54819;48.030;14.710;2023-12-20T05:53:03;97378.60;;;4.60
68027;BMP180;54819;48.030;14.710;2023-12-20T05:55:30;97388.80;;;4.64
68027;BMP180;54819;48.030;14.710;2023-12-20T05:57:56;97389.80;;;4.70
68027;BMP180;54819;48.030;14.710;2023-12-20T06:00:24;97380.80;;;4.70
68027;BMP180;54819;48.030;14.710;2023-12-20T06:02:52;97378.20;;;4.76
68027;BMP180;54819;48.030;14.710;2023-12-20T06:05:19;97380.20;;;4.80
68027;BMP180;54819;48.030;14.710;2023-12-20T06:07:45;97384.20;;;4.80
68027;BMP180;54819;48.030;14.710;2023-12-20T06:10:15;97368.00;;;4.80
68027;BMP180;54819;48.030;14.710;2023-12-20T06:12:42;97357.00;;;4.88
68027;BMP180;54819;48.030;14.710;2023-12-20T06:15:09;97355.00;;;4.90
68027;BMP180;54819;48.030;14.710;2023-12-20T06:17:36;97365.80;;;4.90
68027;BMP180;54819;48.030;14.710;2023-12-20T06:20:04;97365.80;;;4.90
68027;BMP180;54819;48.030;14.710;2023-12-20T06:22:35;97379.20;;;4.90
68027;BMP180;54819;48.030;14.710;2023-12-20T06:25:03;97378.40;;;4.98
68027;BMP180;54819;48.030;14.710;2023-12-20T06:27:29;97384.00;;;5.00
68027;BMP180;54819;48.030;14.710;2023-12-20T06:29:57;97382.80;;;5.00
68027;BMP180;54819;48.030;14.710;2023-12-20T06:32:23;97377.20;;;5.10
68027;BMP180;54819;48.030;14.710;2023-12-20T06:34:50;97362.60;;;5.10
68027;BMP180;54819;48.030;14.710;2023-12-20T06:37:18;97356.00;;;5.12
68027;BMP180;54819;48.030;14.710;2023-12-20T06:39:44;97345.40;;;5.20
68027;BMP180;54819;48.030;14.710;2023-12-20T06:42:12;97342.20;;;5.20
68027;BMP180;54819;48.030;14.710;2023-12-20T06:44:39;97345.40;;;5.30
68027;BMP180;54819;48.030;14.710;2023-12-20T06:47:06;97349.20;;;5.30
68027;BMP180;54819;48.030;14.710;2023-12-20T06:49:33;97352.20;;;5.40
68027;BMP180;54819;48.030;14.710;2023-12-20T06:52:00;97359.00;;;5.50
68027;BMP180;54819;48.030;14.710;2023-12-20T06:54:27;97355.40;;;5.60
68027;BMP180;54819;48.030;14.710;2023-12-20T06:56:54;97349.80;;;5.70
68027;BMP180;54819;48.030;14.710;2023-12-20T06:59:20;97351.40;;;5.80
68027;BMP180;54819;48.030;14.710;2023-12-20T07:01:48;97357.80;;;5.90
68027;BMP180;54819;48.030;14.710;2023-12-20T07:04:16;97373.80;;;6.00
68027;BMP180;54819;48.030;14.710;2023-12-20T07:06:48;97380.60;;;6.10
68027;BMP180;54819;48.030;14.710;2023-12-20T07:09:18;97389.80;;;6.14
68027;BMP180;54819;48.030;14.710;2023-12-20T07:11:44;97394.60;;;6.20
68027;BMP180;54819;48.030;14.710;2023-12-20T07:14:11;97393.20;;;6.30
68027;BMP180;54819;48.030;14.710;2023-12-20T07:16:38;97400.60;;;6.30
68027;BMP180;54819;48.030;14.710;2023-12-20T07:19:05;97406.20;;;6.38
68027;BMP180;54819;48.030;14.710;2023-12-20T07:21:31;97409.80;;;6.40
68027;BMP180;54819;48.030;14.710;2023-12-20T07:23:58;97414.20;;;6.40
68027;BMP180;54819;48.030;14.710;2023-12-20T07:26:25;97428.80;;;6.50
68027;BMP180;54819;48.030;14.710;2023-12-20T07:28:51;97430.80;;;6.50
68027;BMP180;54819;48.030;14.710;2023-12-20T07:31:18;97455.20;;;6.60
68027;BMP180;54819;48.030;14.710;2023-12-20T07:33:45;97452.20;;;6.52
68027;BMP180;54819;48.030;14.710;2023-12-20T07:36:12;97461.00;;;6.52
68027;BMP180;54819;48.030;14.710;2023-12-20T07:38:39;97457.80;;;6.50
68027;BMP180;54819;48.030;14.710;2023-12-20T07:41:09;97458.40;;;6.50
68027;BMP180;54819;48.030;14.710;2023-12-20T07:43:37;97457.60;;;6.50
68027;BMP180;54819;48.030;14.710;2023-12-20T07:46:05;97460.60;;;6.50
68027;BMP180;54819;48.030;14.710;2023-12-20T07:48:34;97459.40;;;6.50
68027;BMP180;54819;48.030;14.710;2023-12-20T07:51:03;97462.40;;;6.60
68027;BMP180;54819;48.030;14.710;2023-12-20T07:53:30;97474.80;;;6.60
68027;BMP180;54819;48.030;14.710;2023-12-20T07:55:56;97480.80;;;6.66
68027;BMP180;54819;48.030;14.710;2023-12-20T07:58:23;97476.60;;;6.70
68027;BMP180;54819;48.030;14.710;2023-12-20T08:01:06;97489.20;;;6.70
68027;BMP180;54819;48.030;14.710;2023-12-20T08:03:33;97494.40;;;6.70
68027;BMP180;54819;48.030;14.710;2023-12-20T08:06:00;97497.00;;;6.72
68027;BMP180;54819;48.030;14.710;2023-12-20T08:08:27;97507.80;;;6.70
68027;BMP180;54819;48.030;14.710;2023-12-20T08:10:54;97513.20;;;6.70
68027;BMP180;54819;48.030;14.710;2023-12-20T08:13:21;97512.40;;;6.70
68027;BMP180;54819;48.030;14.710;2023-12-20T08:15:53;97509.20;;;6.60
68027;BMP180;54819;48.030;14.710;2023-12-20T08:18:20;97509.40;;;6.60
68027;BMP180;54819;48.030;14.710;2023-12-20T08:20:47;97517.20;;;6.60
68027;BMP180;54819;48.030;14.710;2023-12-20T08:23:15;97522.00;;;6.56
68027;BMP180;54819;48.030;14.710;2023-12-20T08:25:42;97527.00;;;6.60
68027;BMP180;54819;48.030;14.710;2023-12-20T08:28:09;97525.60;;;6.50
68027;BMP180;54819;48.030;14.710;2023-12-20T08:30:36;97532.60;;;6.50
68027;BMP180;54819;48.030;14.710;2023-12-20T08:33:03;97535.60;;;6.50
68027;BMP180;54819;48.030;14.710;2023-12-20T08:35:31;97533.40;;;6.50
68027;BMP180;54819;48.030;14.710;2023-12-20T08:37:57;97536.20;;;6.50
68027;BMP180;54819;48.030;14.710;2023-12-20T08:40:24;97538.80;;;6.50
68027;BMP180;54819;48.030;14.710;2023-12-20T08:42:51;97533.60;;;6.50
68027;BMP180;54819;48.030;14.710;2023-12-20T08:45:17;97537.60;;;6.44
68027;BMP180;54819;48.030;14.710;2023-12-20T08:47:44;97536.60;;;6.50
68027;BMP180;54819;48.030;14.710;2023-12-20T08:50:12;97536.80;;;6.50
68027;BMP180;54819;48.030;14.710;2023-12-20T08:52:39;97538.00;;;6.50
68027;BMP180;54819;48.030;14.710;2023-12-20T08:55:06;97534.20;;;6.50
68027;BMP180;54819;48.030;14.710;2023-12-20T08:57:33;97540.00;;;6.54
68027;BMP180;54819;48.030;14.710;2023-12-20T09:00:00;97539.60;;;6.60
68027;BMP180;54819;48.030;14.710;2023-12-20T09:02:26;97540.40;;;6.60
68027;BMP180;54819;48.030;14.710;2023-12-20T09:04:53;97534.00;;;6.60
68027;BMP180;54819;48.030;14.710;2023-12-20T09:07:24;97539.80;;;6.60
68027;BMP180;54819;48.030;14.710;2023-12-20T09:09:52;97541.40;;;6.60
68027;BMP180;54819;48.030;14.710;2023-12-20T09:12:19;97546.40;;;6.64
68027;BMP180;54819;48.030;14.710;2023-12-20T09:14:47;97550.20;;;6.70
68027;BMP180;54819;48.030;14.710;2023-12-20T09:17:15;97551.00;;;6.70
68027;BMP180;54819;48.030;14.710;2023-12-20T09:19:43;97551.40;;;6.70
68027;BMP180;54819;48.030;14.710;2023-12-20T09:22:10;97545.80;;;6.70
68027;BMP180;54819;48.030;14.710;2023-12-20T09:24:38;97538.40;;;6.80
68027;BMP180;54819;48.030;14.710;2023-12-20T09:27:07;97542.00;;;6.80
68027;BMP180;54819;48.030;14.710;2023-12-20T09:29:34;97536.60;;;6.90
68027;BMP180;54819;48.030;14.710;2023-12-20T09:32:01;97531.00;;;6.90
68027;BMP180;54819;48.030;14.710;2023-12-20T09:34:28;97523.40;;;7.00
68027;BMP180;54819;48.030;14.710;2023-12-20T09:36:55;97525.80;;;7.00
68027;BMP180;54819;48.030;14.710;2023-12-20T09:39:22;97525.80;;;7.00
68027;BMP180;54819;48.030;14.710;2023-12-20T09:42:03;97521.80;;;7.10
68027;BMP180;54819;48.030;14.710;2023-12-20T09:44:31;97520.00;;;7.10
68027;BMP180;54819;48.030;14.710;2023-12-20T09:47:02;97516.80;;;7.10
68027;BMP180;54819;48.030;14.710;2023-12-20T09:49:29;97515.40;;;7.12
68027;BMP180;54819;48.030;14.710;2023-12-20T09:51:57;97507.80;;;7.20
68027;BMP180;54819;48.030;14.710;2023-12-20T09:54:25;97499.80;;;7.30
68027;BMP180;54819;48.030;14.710;2023-12-20T09:56:52;97494.20;;;7.30
68027;BMP180;54819;48.030;14.710;2023-12-20T09:59:19;97495.40;;;7.40
68027;BMP180;54819;48.030;14.710;2023-12-20T10:01:46;97489.60;;;7.46
68027;BMP180;54819;48.030;14.710;2023-12-20T10:04:13;97488.80;;;7.50
68027;BMP180;54819;48.030;14.710;2023-12-20T10:06:55;97479.40;;;7.60
68027;BMP180;54819;48.030;14.710;2023-12-20T10:09:23;97478.40;;;7.70
68027;BMP180;54819;48.030;14.710;2023-12-20T10:11:54;97477.40;;;7.70
68027;BMP180;54819;48.030;14.710;2023-12-20T10:14:21;97479.20;;;7.70
68027;BMP180;54819;48.030;14.710;2023-12-20T10:16:50;97473.20;;;7.80
68027;BMP180;54819;48.030;14.710;2023-12-20T10:19:17;97463.80;;;7.80
68027;BMP180;54819;48.030;14.710;2023-12-20T10:21:47;97457.80;;;7.90
68027;BMP180;54819;48.030;14.710;2023-12-20T10:24:17;97457.00;;;7.90
68027;BMP180;54819;48.030;14.710;2023-12-20T10:26:44;97464.20;;;7.90
68027;BMP180;54819;48.030;14.710;2023-12-20T10:29:11;97467.60;;;7.90
68027;BMP180;54819;48.030;14.710;2023-12-20T10:31:38;97468.80;;;7.90
68027;BMP180;54819;48.030;14.710;2023-12-20T10:34:09;97463.40;;;8.00
68027;BMP180;54819;48.030;14.710;2023-12-20T10:36:36;97463.20;;;8.00
68027;BMP180;54819;48.030;14.710;2023-12-20T10:39:04;97461.40;;;8.00
68027;BMP180;54819;48.030;14.710;2023-12-20T10:41:33;97449.20;;;8.00
68027;BMP180;54819;48.030;14.710;2023-12-20T10:44:03;97448.00;;;8.10
68027;BMP180;54819;48.030;14.710;2023-12-20T10:46:34;97447.60;;;8.16
68027;BMP180;54819;48.030;14.710;2023-12-20T10:49:05;97440.00;;;8.20
68027;BMP180;54819;48.030;14.710;2023-12-20T10:51:34;97445.40;;;8.28
68027;BMP180;54819;48.030;14.710;2023-12-20T10:54:01;97436.60;;;8.34
68027;BMP180;54819;48.030;14.710;2023-12-20T10:56:32;97425.80;;;8.46
68027;BMP180;54819;48.030;14.710;2023-12-20T10:59:02;97420.80;;;8.60
68027;BMP180;54819;48.030;14.710;2023-12-20T11:01:33;97419.40;;;8.66
68027;BMP180;54819;48.030;14.710;2023-12-20T11:04:02;97411.20;;;8.70
68027;BMP180;54819;48.030;14.710;2023-12-20T11:06:51;97410.20;;;8.80
68027;BMP180;54819;48.030;14.710;2023-12-20T11:09:24;97398.60;;;8.90
68027;BMP180;54819;48.030;14.710;2023-12-20T11:11:55;97401.80;;;9.00
68027;BMP180;54819;48.030;14.710;2023-12-20T11:14:26;97399.40;;;9.00
68027;BMP180;54819;48.030;14.710;2023-12-20T11:17:20;97399.00;;;9.00
68027;BMP180;54819;48.030;14.710;2023-12-20T11:22:20;97394.60;;;9.10
68027;BMP180;54819;48.030;14.710;2023-12-20T11:24:48;97386.40;;;9.10
68027;BMP180;54819;48.030;14.710;2023-12-20T11:27:15;97381.60;;;9.10
68027;BMP180;54819;48.030;14.710;2023-12-20T11:29:41;97381.60;;;9.10
68027;BMP180;54819;48.030;14.710;2023-12-20T11:34:58;97370.00;;;9.00
68027;BMP180;54819;48.030;14.710;2023-12-20T11:37:35;97378.00;;;8.90
68027;BMP180;54819;48.030;14.710;2023-12-20T11:40:05;97368.60;;;8.90
68027;BMP180;54819;48.030;14.710;2023-12-20T11:42:50;97368.40;;;8.90
68027;BMP180;54819;48.030;14.710;2023-12-20T11:45:20;97365.20;;;9.00
68027;BMP180;54819;48.030;14.710;2023-12-20T11:47:50;97366.80;;;8.94
68027;BMP180;54819;48.030;14.710;2023-12-20T11:50:18;97372.40;;;9.00
68027;BMP180;54819;48.030;14.710;2023-12-20T11:52:46;97385.00;;;9.00
68027;BMP180;54819;48.030;14.710;2023-12-20T11:55:13;97386.80;;;9.00
68027;BMP180;54819;48.030;14.710;2023-12-20T11:57:40;97388.40;;;9.00
68027;BMP180;54819;48.030;14.710;2023-12-20T12:00:07;97392.80;;;9.00
68027;BMP180;54819;48.030;14.710;2023-12-20T12:02:40;97394.00;;;9.00
68027;BMP180;54819;48.030;14.710;2023-12-20T12:05:07;97397.80;;;9.00
68027;BMP180;54819;48.030;14.710;2023-12-20T12:07:34;97395.40;;;9.00
68027;BMP180;54819;48.030;14.710;2023-12-20T12:10:02;97388.80;;;8.90
68027;BMP180;54819;48.030;14.710;2023-12-20T12:12:30;97391.80;;;8.86
68027;BMP180;54819;48.030;14.710;2023-12-20T12:14:57;97391.40;;;8.80
68027;BMP180;54819;48.030;14.710;2023-12-20T12:17:24;97399.20;;;8.70
68027;BMP180;54819;48.030;14.710;2023-12-20T12:20:02;97396.40;;;8.70
68027;BMP180;54819;48.030;14.710;2023-12-20T12:22:30;97392.80;;;8.60
68027;BMP180;54819;48.030;14.710;2023-12-20T12:24:59;97390.00;;;8.60
68027;BMP180;54819;48.030;14.710;2023-12-20T12:27:27;97394.60;;;8.50
68027;BMP180;54819;48.030;14.710;2023-12-20T12:30:02;97393.60;;;8.50
68027;BMP180;54819;48.030;14.710;2023-12-20T12:32:30;97387.00;;;8.40
68027;BMP180;54819;48.030;14.710;2023-12-20T12:34:57;97387.80;;;8.40
68027;BMP180;54819;48.030;14.710;2023-12-20T12:37:24;97387.60;;;8.30
68027;BMP180;54819;48.030;14.710;2023-12-20T12:39:53;97388.00;;;8.30
68027;BMP180;54819;48.030;14.710;2023-12-20T12:42:20;97384.20;;;8.20
68027;BMP180;54819;48.030;14.710;2023-12-20T12:44:48;97392.40;;;8.20
68027;BMP180;54819;48.030;14.710;2023-12-20T12:47:14;97396.60;;;8.10
68027;BMP180;54819;48.030;14.710;2023-12-20T12:49:41;97399.40;;;8.10
68027;BMP180;54819;48.030;14.710;2023-12-20T12:52:08;97393.00;;;8.10
68027;BMP180;54819;48.030;14.710;2023-12-20T12:54:34;97394.20;;;8.10
68027;BMP180;54819;48.030;14.710;2023-12-20T12:57:01;97394.40;;;8.10
68027;BMP180;54819;48.030;14.710;2023-12-20T12:59:28;97391.00;;;8.10
68027;BMP180;54819;48.030;14.710;2023-12-20T13:01:54;97385.20;;;8.10
68027;BMP180;54819;48.030;14.710;2023-12-20T13:04:21;97380.80;;;8.10
68027;BMP180;54819;48.030;14.710;2023-12-20T13:06:48;97380.00;;;8.00
68027;BMP180;54819;48.030;14.710;2023-12-20T13:09:15;97376.20;;;8.04
68027;BMP180;54819;48.030;14.710;2023-12-20T13:11:42;97380.40;;;8.00
68027;BMP180;54819;48.030;14.710;2023-12-20T13:14:08;97380.60;;;8.00
68027;BMP180;54819;48.030;14.710;2023-12-20T13:16:39;97376.00;;;8.00
68027;BMP180;54819;48.030;14.710;2023-12-20T13:19:06;97377.60;;;8.00
68027;BMP180;54819;48.030;14.710;2023-12-20T13:21:33;97376.00;;;8.00
68027;BMP180;54819;48.030;14.710;2023-12-20T13:23:59;97371.00;;;8.00
68027;BMP180;54819;48.030;14.710;2023-12-20T13:26:26;97368.40;;;8.00
68027;BMP180;54819;48.030;14.710;2023-12-20T13:28:54;97369.60;;;7.94
68027;BMP180;54819;48.030;14.710;2023-12-20T13:31:20;97369.00;;;7.94
68027;BMP180;54819;48.030;14.710;2023-12-20T13:33:48;97371.00;;;7.90
68027;BMP180;54819;48.030;14.710;2023-12-20T13:36:14;97368.80;;;7.80
68027;BMP180;54819;48.030;14.710;2023-12-20T13:38:42;97370.60;;;7.80
68027;BMP180;54819;48.030;14.710;2023-12-20T13:41:09;97366.60;;;7.70
68027;BMP180;54819;48.030;14.710;2023-12-20T13:43:36;97367.80;;;7.70
68027;BMP180;54819;48.030;14.710;2023-12-20T13:46:03;97366.80;;;7.70
68027;BMP180;54819;48.030;14.710;2023-12-20T13:48:30;97361.80;;;7.70
68027;BMP180;54819;48.030;14.710;2023-12-20T13:50:56;97361.80;;;7.70
68027;BMP180;54819;48.030;14.710;2023-12-20T13:53:23;97357.40;;;7.60
68027;BMP180;54819;48.030;14.710;2023-12-20T13:55:50;97359.60;;;7.60
68027;BMP180;54819;48.030;14.710;2023-12-20T13:58:16;97360.00;;;7.70
68027;BMP180;54819;48.030;14.710;2023-12-20T14:00:43;97346.60;;;7.60
68027;BMP180;54819;48.030;14.710;2023-12-20T14:03:10;97347.20;;;7.68
68027;BMP180;54819;48.030;14.710;2023-12-20T14:05:37;97347.20;;;7.60
68027;BMP180;54819;48.030;14.710;2023-12-20T14:08:04;97351.60;;;7.60
68027;BMP180;54819;48.030;14.710;2023-12-20T14:10:31;97346.60;;;7.54
68027;BMP180;54819;48.030;14.710;2023-12-20T14:12:58;97350.20;;;7.50
68027;BMP180;54819;48.030;14.710;2023-12-20T14:15:24;97351.20;;;7.54
68027;BMP180;54819;48.030;14.710;2023-12-20T14:17:52;97355.80;;;7.50